Time;durP1;ratioP1;P1;durP2;ratioP2;P2;SDS_P1;SDS_P2;PMS_P1;PMS_P2;Temp;Humidity;BMP_temperature;BMP_pressure;BME280_temperature;BME280_humidity;BME280_pressure;Samples;Min_cycle;Max_cycle;Signal;HPM_P1;HPM_P2
2023/08/22 00:02:12;;;;;;;10.35;5.07;;;;;;;25.60;100.00;100846.69;5054505;28;20119;-73
2023/08/22 00:04:39;;;;;;;7.50;4.95;;;;;;;25.53;100.00;100853.28;5072423;28;20564;-73
2023/08/22 00:07:04;;;;;;;8.50;4.90;;;;;;;25.72;100.00;100824.91;5072494;28;20028;-74
2023/08/22 00:09:30;;;;;;;10.18;5.40;;;;;;;25.66;100.00;100820.16;5068711;28;20169;-72
2023/08/22 00:11:55;;;;;;;13.52;5.28;;;;;;;25.28;100.00;100777.94;5052621;28;20052;-72
2023/08/22 00:14:20;;;;;;;7.97;4.60;;;;;;;25.47;100.00;100812.06;5052610;28;20032;-73
2023/08/22 00:16:46;;;;;;;8.70;4.85;;;;;;;25.38;100.00;100778.91;5052268;28;20120;-74
2023/08/22 00:19:11;;;;;;;12.85;5.22;;;;;;;25.62;100.00;100803.09;5052330;28;20423;-73
2023/08/22 00:21:36;;;;;;;9.18;5.28;;;;;;;25.87;100.00;100770.72;5052080;28;20029;-74
2023/08/22 00:24:03;;;;;;;8.90;5.78;;;;;;;26.30;100.00;100821.19;5052253;28;20033;-74
2023/08/22 00:26:28;;;;;;;8.23;5.85;;;;;;;26.11;100.00;100752.34;5051941;28;20033;-73
2023/08/22 00:28:53;;;;;;;7.50;5.70;;;;;;;26.45;100.00;100751.28;5052357;28;20124;-74
2023/08/22 00:31:19;;;;;;;7.13;6.10;;;;;;;26.69;100.00;100804.09;5052119;28;20424;-74
2023/08/22 00:33:44;;;;;;;8.98;6.03;;;;;;;26.66;100.00;100744.31;5034131;28;20417;-75
2023/08/22 00:36:09;;;;;;;7.38;6.57;;;;;;;26.58;100.00;100741.50;5052022;28;20098;-73
2023/08/22 00:38:35;;;;;;;10.48;6.13;;;;;;;27.01;100.00;100796.25;5051686;28;20028;-73
2023/08/22 00:41:00;;;;;;;8.05;6.50;;;;;;;27.05;100.00;100792.41;5051624;28;20017;-69
2023/08/22 00:43:26;;;;;;;11.40;6.75;;;;;;;26.77;100.00;100746.06;5033722;28;20041;-74
2023/08/22 00:45:51;;;;;;;9.20;6.00;;;;;;;27.04;100.00;100772.50;5051583;28;20116;-75
2023/08/22 00:48:17;;;;;;;6.90;6.18;;;;;;;26.88;100.00;100746.81;5052112;28;20391;-73
2023/08/22 00:50:42;;;;;;;11.07;6.25;;;;;;;26.66;100.00;100740.88;5051906;28;20479;-75
2023/08/22 00:53:08;;;;;;;11.20;6.45;;;;;;;26.90;100.00;100791.91;5051884;28;20032;-75
2023/08/22 00:55:33;;;;;;;9.95;5.88;;;;;;;26.32;100.00;100816.69;5051620;28;20029;-74
2023/08/22 00:57:59;;;;;;;9.30;5.55;;;;;;;26.24;100.00;100785.16;5051476;28;20534;-74
2023/08/22 01:00:25;;;;;;;9.60;5.82;;;;;;;25.92;100.00;100815.53;5051611;28;20029;-74
2023/08/22 01:02:50;;;;;;;11.02;5.85;;;;;;;25.97;100.00;100783.88;5033280;28;20094;-75
2023/08/22 01:05:16;;;;;;;7.50;5.90;;;;;;;26.12;100.00;100757.47;5052113;28;20029;-75
2023/08/22 01:08:05;;;;;;;9.05;6.65;;;;;;;26.28;100.00;100822.25;5051584;28;20086;-74
2023/08/22 01:10:36;;;;;;;8.00;6.15;;;;;;;26.11;100.00;100765.38;5051765;28;20049;-74
2023/08/22 01:13:09;;;;;;;14.57;6.80;;;;;;;26.15;100.00;100780.66;5051653;28;20037;-74
2023/08/22 01:15:35;;;;;;;10.55;6.13;;;;;;;26.19;100.00;100770.81;5033619;28;20040;-74
2023/08/22 01:18:04;;;;;;;6.95;6.25;;;;;;;26.51;100.00;100821.22;5051077;28;20036;-75
2023/08/22 01:20:30;;;;;;;8.15;6.53;;;;;;;26.34;100.00;100819.16;5051314;28;20032;-74
2023/08/22 01:22:57;;;;;;;7.28;6.50;;;;;;;26.20;100.00;100770.72;5051432;28;20031;-75
2023/08/22 01:25:27;;;;;;;7.00;6.18;;;;;;;26.42;100.00;100822.78;5051345;28;20037;-74
2023/08/22 01:28:08;;;;;;;8.27;6.57;;;;;;;26.41;100.00;100825.53;5051597;28;20487;-74
2023/08/22 01:31:12;;;;;;;10.98;6.60;;;;;;;26.31;100.00;100822.00;5051676;28;20031;-77
2023/08/22 01:33:56;;;;;;;9.45;6.00;;;;;;;26.06;100.00;100828.34;5022739;28;20033;-75
2023/08/22 01:36:23;;;;;;;10.80;6.47;;;;;;;25.58;100.00;100773.03;5033797;28;20139;-75
2023/08/22 01:38:50;;;;;;;8.95;5.38;;;;;;;25.13;100.00;100781.72;5051487;28;20033;-74
2023/08/22 01:41:17;;;;;;;7.72;4.90;;;;;;;25.06;100.00;100844.78;5051237;28;20076;-77
2023/08/22 01:43:43;;;;;;;8.73;5.20;;;;;;;24.85;100.00;100821.97;5051135;28;20037;-76
2023/08/22 01:46:08;;;;;;;11.70;5.45;;;;;;;24.51;100.00;100808.91;5050859;28;20040;-74
2023/08/22 01:48:35;;;;;;;8.13;5.00;;;;;;;24.63;100.00;100805.41;5051617;28;20025;-75
2023/08/22 01:51:00;;;;;;;9.68;5.13;;;;;;;24.49;100.00;100810.78;5051225;28;20058;-75
2023/08/22 01:53:26;;;;;;;6.85;5.00;;;;;;;24.72;100.00;100864.59;5051062;28;20124;-75
2023/08/22 01:55:51;;;;;;;10.50;5.20;;;;;;;24.72;100.00;100862.00;5051300;28;20033;-75
2023/08/22 01:58:17;;;;;;;9.73;5.22;;;;;;;24.87;100.00;100842.69;5052268;28;20075;-74
2023/08/22 02:00:42;;;;;;;5.80;4.85;;;;;;;24.21;100.00;100756.50;5055181;28;20451;-75
2023/08/22 02:03:08;;;;;;;9.35;5.07;;;;;;;24.67;100.00;100840.66;5055275;28;20056;-74
2023/08/22 02:05:34;;;;;;;9.25;5.32;;;;;;;24.30;100.00;100746.28;5055493;28;20029;-75
2023/08/22 02:08:04;;;;;;;6.72;4.97;;;;;;;24.77;100.00;100860.75;5055300;28;20431;-75
2023/08/22 02:10:29;;;;;;;8.52;5.25;;;;;;;24.82;100.00;100849.97;5037486;28;20160;-71
2023/08/22 02:12:55;;;;;;;10.43;5.60;;;;;;;24.68;100.00;100795.50;5055138;28;20516;-75
2023/08/22 02:15:21;;;;;;;9.48;5.70;;;;;;;24.70;100.00;100791.03;5055382;28;20029;-76
2023/08/22 02:17:47;;;;;;;9.27;5.60;;;;;;;24.90;100.00;100777.38;5054992;28;20033;-74
2023/08/22 02:20:12;;;;;;;11.55;5.50;;;;;;;25.25;100.00;100825.06;5054851;28;20029;-75
2023/08/22 02:22:41;;;;;;;9.10;6.45;;;;;;;24.84;100.00;100783.03;5036951;28;20033;-76
2023/08/22 02:25:11;;;;;;;11.15;6.05;;;;;;;25.29;100.00;100836.06;5054887;28;20028;-72
2023/08/22 02:27:37;;;;;;;8.18;6.10;;;;;;;25.34;100.00;100826.94;5054560;28;20116;-72
2023/08/22 02:30:05;;;;;;;9.23;6.30;;;;;;;25.35;100.00;100819.97;5054685;28;20060;-75
2023/08/22 02:32:30;;;;;;;11.35;6.05;;;;;;;25.17;100.00;100788.34;5054940;28;20046;-75
2023/08/22 02:34:56;;;;;;;8.68;6.00;;;;;;;25.08;100.00;100770.81;5062900;28;20033;-75
2023/08/22 02:37:21;;;;;;;10.13;6.05;;;;;;;25.25;100.00;100756.50;5055714;28;20024;-75
2023/08/22 02:39:46;;;;;;;7.13;5.50;;;;;;;24.88;100.00;100761.03;5036642;28;20152;-73
2023/08/22 02:42:12;;;;;;;8.23;5.82;;;;;;;25.02;100.00;100758.25;5036438;28;20119;-74
2023/08/22 02:44:38;;;;;;;12.15;5.90;;;;;;;25.35;100.00;100799.97;5054187;28;20019;-75
2023/08/22 02:47:03;;;;;;;8.05;6.20;;;;;;;24.98;100.00;100753.41;5053988;28;20028;-74
2023/08/22 02:49:29;;;;;;;9.88;6.40;;;;;;;25.43;100.00;100813.25;5054151;28;20025;-74
2023/08/22 02:51:54;;;;;;;8.43;5.93;;;;;;;25.00;100.00;100762.72;5053960;28;20423;-74
2023/08/22 02:54:19;;;;;;;12.90;5.90;;;;;;;25.12;100.00;100764.41;5054094;28;20029;-73
2023/08/22 02:56:45;;;;;;;9.65;6.45;;;;;;;25.16;100.00;100768.44;5054156;28;20032;-74
2023/08/22 02:59:10;;;;;;;6.88;5.97;;;;;;;25.15;100.00;100760.75;5054344;28;20106;-74
2023/08/22 03:01:35;;;;;;;7.07;6.03;;;;;;;25.13;100.00;100843.34;5053698;28;20079;-75
2023/08/22 03:04:01;;;;;;;9.65;6.95;;;;;;;25.28;100.00;100824.81;5053461;28;20059;-74
2023/08/22 03:06:27;;;;;;;7.75;6.10;;;;;;;25.29;100.00;100831.69;5054118;28;20055;-75
2023/08/22 03:08:52;;;;;;;7.55;6.50;;;;;;;24.94;100.00;100773.59;5053992;28;20119;-74
2023/08/22 03:11:17;;;;;;;8.90;6.05;;;;;;;24.80;100.00;100786.81;5053355;28;20102;-75
2023/08/22 03:13:43;;;;;;;10.98;6.40;;;;;;;25.20;100.00;100840.16;5053986;28;20056;-72
2023/08/22 03:16:09;;;;;;;10.30;6.40;;;;;;;25.13;100.00;100851.16;5061473;28;20055;-74
2023/08/22 03:18:34;;;;;;;10.23;6.68;;;;;;;25.05;100.00;100785.81;5073042;28;20097;-75
2023/08/22 03:20:59;;;;;;;8.15;6.78;;;;;;;25.29;100.00;100830.84;5060743;28;20083;-75
2023/08/22 03:23:25;;;;;;;12.52;6.75;;;;;;;25.04;100.00;100844.06;5070316;28;20033;-75
2023/08/22 03:26:01;;;;;;;9.50;6.40;;;;;;;24.74;100.00;100813.31;5053494;28;20024;-74
2023/08/22 03:28:27;;;;;;;14.60;7.07;;;;;;;24.80;100.00;100789.41;5035495;28;20095;-74
2023/08/22 03:31:02;;;;;;;12.25;6.20;;;;;;;25.21;100.00;100847.06;5053985;28;20037;-75
2023/08/22 03:33:28;;;;;;;17.20;7.05;;;;;;;25.03;100.00;100848.41;5054154;28;20040;-75
2023/08/22 03:35:54;;;;;;;13.18;6.80;;;;;;;25.27;100.00;100850.97;5053202;28;20135;-75
2023/08/22 03:38:20;;;;;;;14.95;7.03;;;;;;;24.61;100.00;100758.69;5053807;28;20139;-75
2023/08/22 03:40:47;;;;;;;9.80;6.70;;;;;;;24.84;100.00;100809.06;5053760;28;20412;-72
2023/08/22 03:43:13;;;;;;;11.57;6.60;;;;;;;24.84;100.00;100799.50;5063269;28;20066;-74
2023/08/22 03:45:38;;;;;;;10.07;7.13;;;;;;;24.84;100.00;100783.88;5072725;28;20024;-74
2023/08/22 03:48:04;;;;;;;11.48;6.63;;;;;;;24.93;100.00;100798.81;5072156;28;20886;-75
2023/08/22 03:50:30;;;;;;;11.98;6.75;;;;;;;25.39;100.00;100852.66;5072857;28;20032;-76
2023/08/22 03:52:56;;;;;;;10.75;6.70;;;;;;;24.84;100.00;100752.66;5071570;28;20035;-72
2023/08/22 03:55:21;;;;;;;13.80;7.40;;;;;;;25.29;100.00;100867.31;5054941;28;20036;-74
2023/08/22 03:57:47;;;;;;;18.65;7.60;;;;;;;24.75;100.00;100794.13;5054282;28;20036;-74
2023/08/22 04:00:13;;;;;;;13.98;7.18;;;;;;;23.98;100.00;100790.16;5052689;28;20116;-74
2023/08/22 04:02:38;;;;;;;14.50;7.20;;;;;;;24.22;100.00;100816.19;5052319;28;20041;-75
2023/08/22 04:05:04;;;;;;;17.80;7.57;;;;;;;23.98;100.00;100779.75;5052032;28;20120;-76
2023/08/22 04:07:29;;;;;;;16.17;7.90;;;;;;;24.49;100.00;100876.63;5052709;28;20036;-75
2023/08/22 04:09:55;;;;;;;18.52;7.82;;;;;;;24.87;100.00;100869.53;5052961;28;20025;-75
2023/08/22 04:12:20;;;;;;;21.00;8.02;;;;;;;25.06;100.00;100882.03;5052757;28;20071;-76
2023/08/22 04:14:46;;;;;;;17.50;7.97;;;;;;;24.84;100.00;100861.09;5052513;28;20067;-74
2023/08/22 04:17:11;;;;;;;18.83;8.27;;;;;;;24.72;100.00;100789.97;5034160;28;20095;-75
2023/08/22 04:19:38;;;;;;;19.27;7.72;;;;;;;24.69;100.00;100743.38;5052907;28;20031;-79
2023/08/22 04:22:04;;;;;;;16.95;8.18;;;;;;;24.39;100.00;100771.59;5051870;28;20044;-78
2023/08/22 04:24:29;;;;;;;15.02;7.32;;;;;;;24.93;100.00;100795.38;5052736;28;20025;-74
2023/08/22 04:26:54;;;;;;;13.93;7.47;;;;;;;25.20;100.00;100813.31;5052521;28;20484;-75
2023/08/22 04:29:20;;;;;;;17.30;8.05;;;;;;;25.51;100.00;100839.53;5053165;28;20031;-74
2023/08/22 04:31:46;;;;;;;14.93;7.90;;;;;;;25.34;100.00;100743.63;5052384;28;20024;-75
2023/08/22 04:34:11;;;;;;;14.10;8.18;;;;;;;25.31;100.00;100780.31;5050404;28;20115;-76
2023/08/22 04:36:37;;;;;;;22.02;8.50;;;;;;;25.31;100.00;100792.50;5055949;28;20564;-75
2023/08/22 04:39:02;;;;;;;15.75;7.90;;;;;;;24.81;100.00;100809.31;5051398;28;20033;-76
2023/08/22 04:41:28;;;;;;;31.60;9.10;;;;;;;25.46;100.00;100865.13;5052345;28;20033;-71
2023/08/22 04:43:53;;;;;;;27.75;8.02;;;;;;;25.29;100.00;100857.72;5068441;28;20036;-75
2023/08/22 04:46:19;;;;;;;21.45;8.15;;;;;;;24.84;100.00;100814.25;5072106;28;20082;-76
2023/08/22 04:48:44;;;;;;;20.67;8.32;;;;;;;24.65;100.00;100798.31;5054384;28;20036;-75
2023/08/22 04:51:10;;;;;;;19.23;7.10;;;;;;;24.91;100.00;100872.75;5072172;28;20031;-76
2023/08/22 04:53:35;;;;;;;19.60;8.25;;;;;;;24.68;100.00;100808.53;5072226;28;20025;-78
2023/08/22 04:56:00;;;;;;;16.80;6.78;;;;;;;24.83;100.00;100823.03;5070109;28;20025;-75
2023/08/22 04:58:26;;;;;;;17.65;7.28;;;;;;;24.88;100.00;100810.50;5071837;28;20080;-76
2023/08/22 05:00:51;;;;;;;13.80;6.45;;;;;;;25.32;100.00;100849.69;5071968;28;20098;-76
2023/08/22 05:03:19;;;;;;;14.18;6.05;;;;;;;25.39;100.00;100788.38;5054734;28;20060;-74
2023/08/22 05:05:45;;;;;;;13.43;6.35;;;;;;;25.95;100.00;100843.13;5071727;28;20422;-76
2023/08/22 05:08:10;;;;;;;15.45;6.25;;;;;;;25.80;100.00;100774.78;5071919;28;20043;-75
2023/08/22 05:10:36;;;;;;;17.60;7.43;;;;;;;26.11;100.00;100771.44;5071550;28;20529;-74
2023/08/22 05:13:01;;;;;;;17.92;6.55;;;;;;;26.21;100.00;100764.53;5054665;28;20095;-75
2023/08/22 05:15:27;;;;;;;13.95;6.88;;;;;;;26.59;100.00;100775.31;5072535;28;20552;-76
2023/08/22 05:17:52;;;;;;;20.65;7.32;;;;;;;26.90;100.00;100773.63;5073218;28;20064;-76
2023/08/22 05:20:17;;;;;;;22.20;7.15;;;;;;;27.28;100.00;100799.97;5073334;28;20123;-78
2023/08/22 05:22:43;;;;;;;22.95;7.97;;;;;;;27.41;100.00;100750.16;5054241;28;20036;-78
2023/08/22 05:25:08;;;;;;;20.80;8.15;;;;;;;27.75;100.00;100813.44;5071951;28;20472;-80
2023/08/22 05:27:34;;;;;;;24.33;8.77;;;;;;;27.98;100.00;100812.31;5071292;28;20036;-76
2023/08/22 05:29:59;;;;;;;27.25;8.70;;;;;;;28.19;100.00;100794.72;5071651;28;20036;-77
2023/08/22 05:32:25;;;;;;;19.98;8.20;;;;;;;28.29;100.00;100782.47;5071325;28;20108;-74
2023/08/22 05:34:50;;;;;;;21.55;7.93;;;;;;;28.72;100.00;100790.78;5072113;28;20056;-75
2023/08/22 05:37:15;;;;;;;24.13;8.40;;;;;;;28.74;100.00;100781.00;5071295;28;20036;-75
2023/08/22 05:39:41;;;;;;;25.88;8.85;;;;;;;29.34;100.00;100778.97;5071751;28;20040;-75
2023/08/22 05:42:06;;;;;;;12.75;7.55;;;;;;;29.54;100.00;100770.06;5071006;28;20040;-76
2023/08/22 05:44:32;;;;;;;15.82;7.43;;;;;;;29.75;100.00;100765.44;5053452;28;20479;-76
2023/08/22 05:46:58;;;;;;;13.15;7.10;;;;;;;30.15;100.00;100746.69;5071562;28;20029;-75
2023/08/22 05:49:24;;;;;;;12.75;7.90;;;;;;;30.02;100.00;100767.22;5053184;28;20404;-75
2023/08/22 05:51:49;;;;;;;13.52;7.70;;;;;;;30.08;100.00;100722.00;5071252;28;20028;-75
2023/08/22 05:54:15;;;;;;;19.80;7.78;;;;;;;30.43;100.00;100782.41;5071395;28;20418;-77
2023/08/22 05:56:40;;;;;;;15.68;7.30;;;;;;;30.77;100.00;100749.22;5071336;28;20036;-75
2023/08/22 05:59:06;;;;;;;16.63;7.22;;;;;;;30.54;100.00;100709.50;5071470;28;20079;-75
2023/08/22 06:01:31;;;;;;;28.00;9.65;;;;;;;31.13;100.00;100749.97;5071397;28;20102;-76
2023/08/22 06:03:57;;;;;;;14.30;7.57;;;;;;;30.99;100.00;100697.97;5071909;28;20036;-76
2023/08/22 06:06:22;;;;;;;8.48;7.25;;;;;;;31.44;100.00;100733.56;5071160;28;20132;-77
2023/08/22 06:08:47;;;;;;;10.05;7.68;;;;;;;31.58;100.00;100680.34;5071412;28;20032;-75
2023/08/22 06:11:13;;;;;;;11.23;6.80;;;;;;;31.53;100.00;100710.75;5070870;28;20056;-76
2023/08/22 06:13:38;;;;;;;9.52;6.55;;;;;;;31.45;100.00;100676.53;5071072;28;20033;-75
2023/08/22 06:16:04;;;;;;;13.90;7.40;;;;;;;32.14;100.00;100695.44;5071545;28;20486;-77
2023/08/22 06:18:29;;;;;;;13.00;6.95;;;;;;;32.03;100.00;100710.75;5053236;28;20028;-75
2023/08/22 06:21:00;;;;;;;9.10;6.70;;;;;;;32.24;100.00;100695.28;5070943;28;20085;-75
2023/08/22 06:23:26;;;;;;;9.85;6.75;;;;;;;31.88;100.00;100671.03;5067653;28;20040;-74
2023/08/22 06:25:52;;;;;;;10.55;6.40;;;;;;;32.13;100.00;100662.19;5071095;28;20032;-75
2023/08/22 06:28:17;;;;;;;7.00;6.10;;;;;;;32.35;100.00;100690.50;5071154;28;20032;-76
2023/08/22 06:30:43;;;;;;;14.57;6.45;;;;;;;32.65;100.00;100694.28;5070953;28;20028;-77
2023/08/22 06:33:09;;;;;;;7.93;6.60;;;;;;;32.35;100.00;100706.28;5053352;28;20455;-78
2023/08/22 06:35:34;;;;;;;11.52;6.72;;;;;;;32.82;100.00;100681.91;5070856;28;20143;-76
2023/08/22 06:37:59;;;;;;;11.82;6.60;;;;;;;32.75;100.00;100644.03;5071388;28;20086;-77
2023/08/22 06:40:25;;;;;;;8.25;6.22;;;;;;;32.37;100.00;100601.59;5071341;28;20036;-79
2023/08/22 06:42:50;;;;;;;10.23;5.97;;;;;;;32.88;100.00;100596.88;5071227;28;20081;-79
2023/08/22 06:45:16;;;;;;;10.95;6.50;;;;;;;33.07;100.00;100646.59;5073634;28;20027;-74
2023/08/22 06:47:41;;;;;;;11.30;6.28;;;;;;;33.47;100.00;100664.03;5073681;28;20127;-74
2023/08/22 06:50:07;;;;;;;11.10;6.30;;;;;;;33.22;100.00;100676.50;5056057;28;20032;-76
2023/08/22 06:52:33;;;;;;;8.13;6.30;;;;;;;33.25;100.00;100647.16;5074320;28;20024;-77
2023/08/22 06:54:58;;;;;;;9.10;6.72;;;;;;;33.42;100.00;100683.00;5074165;28;20039;-72
2023/08/22 06:57:24;;;;;;;9.25;6.53;;;;;;;33.68;100.00;100682.72;5074282;28;20120;-74
2023/08/22 06:59:49;;;;;;;8.77;6.20;;;;;;;33.30;100.00;100625.56;5056429;28;20040;-75
2023/08/22 07:02:15;;;;;;;12.63;6.22;;;;;;;33.58;100.00;100598.50;5074077;28;20484;-76
2023/08/22 07:04:40;;;;;;;9.75;6.30;;;;;;;34.19;100.00;100602.00;5055770;28;20032;-75
2023/08/22 07:07:06;;;;;;;10.55;6.45;;;;;;;34.31;100.00;100658.69;5056116;28;20024;-75
2023/08/22 07:09:31;;;;;;;11.68;6.63;;;;;;;34.47;100.00;100651.44;5073948;28;20521;-76
2023/08/22 07:11:56;;;;;;;7.25;6.40;;;;;;;34.47;100.00;100650.59;5073976;28;20124;-75
2023/08/22 07:14:22;;;;;;;14.23;6.78;;;;;;;34.05;100.00;100673.09;5073489;28;20032;-75
2023/08/22 07:16:47;;;;;;;10.25;6.22;;;;;;;34.30;100.00;100657.03;5074147;28;20043;-74
2023/08/22 07:19:13;;;;;;;12.15;6.07;;;;;;;34.42;100.00;100637.09;5055468;28;20122;-74
2023/08/22 07:21:38;;;;;;;13.95;7.00;;;;;;;34.79;100.00;100650.28;5055844;28;20050;-74
2023/08/22 07:24:04;;;;;;;11.95;6.95;;;;;;;34.93;100.00;100592.09;5073625;28;20024;-77
2023/08/22 07:26:30;;;;;;;10.77;6.40;;;;;;;34.61;100.00;100589.03;5055428;28;20068;-74
2023/08/22 07:28:55;;;;;;;11.93;7.55;;;;;;;35.13;100.00;100647.91;5073921;28;20032;-74
2023/08/22 07:31:21;;;;;;;13.48;6.55;;;;;;;34.62;100.00;100651.47;5073013;28;20102;-74
2023/08/22 07:33:46;;;;;;;9.70;6.65;;;;;;;34.14;100.00;100676.50;5073115;28;20392;-75
2023/08/22 07:36:21;;;;;;;11.35;6.90;;;;;;;34.02;100.00;100639.13;5073676;28;20052;-75
2023/08/22 07:38:47;;;;;;;10.57;6.93;;;;;;;35.03;100.00;100650.03;5055207;28;20553;-74
2023/08/22 07:41:12;;;;;;;9.70;6.82;;;;;;;34.87;100.00;100587.56;5055218;28;20028;-75
2023/08/22 07:43:38;;;;;;;13.45;6.80;;;;;;;35.10;100.00;100644.84;5073153;28;20475;-74
2023/08/22 07:46:03;;;;;;;13.05;6.78;;;;;;;34.80;100.00;100607.78;5054932;28;20115;-75
2023/08/22 07:48:28;;;;;;;9.75;6.95;;;;;;;35.01;100.00;100585.09;5072778;28;20024;-74
2023/08/22 07:50:57;;;;;;;12.55;6.63;;;;;;;35.19;100.00;100651.66;5073333;28;20016;-75
2023/08/22 07:53:22;;;;;;;15.35;7.00;;;;;;;35.26;100.00;100578.47;5055141;28;20490;-75
2023/08/22 07:55:48;;;;;;;12.25;7.07;;;;;;;35.52;100.00;100569.00;5072277;28;20029;-75
2023/08/22 07:58:15;;;;;;;10.45;7.25;;;;;;;35.06;100.00;100586.19;5072967;28;20107;-74
2023/08/22 08:00:41;;;;;;;9.20;7.00;;;;;;;35.35;100.00;100623.16;5055609;28;20122;-75
2023/08/22 08:03:06;;;;;;;15.52;7.03;;;;;;;35.08;100.00;100592.13;5072830;28;20140;-76
2023/08/22 08:05:32;;;;;;;14.48;6.45;;;;;;;35.68;100.00;100603.16;5036931;28;20037;-75
2023/08/22 08:07:58;;;;;;;11.52;6.93;;;;;;;35.27;100.00;100570.34;5052687;28;20040;-75
2023/08/22 08:10:23;;;;;;;15.18;7.85;;;;;;;35.50;100.00;100631.88;5052812;28;20104;-74
2023/08/22 08:12:48;;;;;;;10.73;6.97;;;;;;;35.48;100.00;100647.13;5035388;28;20025;-74
2023/08/22 08:15:14;;;;;;;11.13;7.38;;;;;;;35.28;100.00;100594.97;5053076;28;20025;-76
2023/08/22 08:17:39;;;;;;;10.73;7.32;;;;;;;35.54;100.00;100635.78;5052926;28;20388;-75
2023/08/22 08:20:06;;;;;;;11.77;7.00;;;;;;;35.52;100.00;100627.22;5053108;28;20044;-80
2023/08/22 08:22:31;;;;;;;13.10;7.35;;;;;;;35.53;100.00;100620.94;5053351;28;20036;-76
2023/08/22 08:24:57;;;;;;;13.50;6.90;;;;;;;36.08;100.00;100603.50;5052329;28;20146;-74
2023/08/22 08:27:22;;;;;;;15.68;7.60;;;;;;;36.14;100.00;100600.09;5053231;28;20510;-77
2023/08/22 08:29:47;;;;;;;8.70;7.20;;;;;;;36.26;100.00;100596.72;5052458;28;20036;-77
2023/08/22 08:32:13;;;;;;;12.77;7.43;;;;;;;36.26;100.00;100540.25;5052915;28;20017;-74
2023/08/22 08:34:38;;;;;;;9.80;6.70;;;;;;;36.03;100.00;100543.19;5052642;28;20033;-76
2023/08/22 08:37:04;;;;;;;8.18;7.10;;;;;;;36.58;100.00;100530.84;5053128;28;20029;-75
2023/08/22 08:39:29;;;;;;;9.80;6.97;;;;;;;36.67;100.00;100583.53;5035014;28;20037;-76
2023/08/22 08:42:12;;;;;;;14.38;7.07;;;;;;;35.66;100.00;100626.34;5035260;28;20037;-77
2023/08/22 08:44:38;;;;;;;9.10;6.95;;;;;;;36.39;100.00;100586.22;5034850;28;20444;-75
2023/08/22 08:47:06;;;;;;;12.27;6.72;;;;;;;36.45;100.00;100553.63;5052162;28;20488;-80
2023/08/22 08:49:33;;;;;;;9.10;6.97;;;;;;;36.00;100.00;100553.31;5052785;28;20055;-81
2023/08/22 08:52:02;;;;;;;10.13;6.47;;;;;;;36.58;100.00;100597.97;5052644;28;20032;-74
2023/08/22 08:54:28;;;;;;;13.38;7.70;;;;;;;37.01;100.00;100580.84;5052581;28;20029;-76
2023/08/22 08:56:54;;;;;;;9.73;6.95;;;;;;;36.46;100.00;100594.22;5052289;28;20025;-77
2023/08/22 08:59:19;;;;;;;9.63;7.10;;;;;;;36.43;100.00;100544.22;5052377;28;20071;-76
2023/08/22 09:01:46;;;;;;;11.82;6.80;;;;;;;36.75;100.00;100572.75;5052058;28;20025;-74
2023/08/22 09:04:12;;;;;;;10.65;6.70;;;;;;;36.20;100.00;100567.53;5052333;28;20029;-80
2023/08/22 09:06:37;;;;;;;9.32;6.60;;;;;;;36.35;100.00;100544.41;5034255;28;20444;-71
2023/08/22 09:09:12;;;;;;;11.98;7.28;;;;;;;36.83;100.00;100577.06;5051780;28;20124;-77
2023/08/22 09:11:45;;;;;;;12.02;7.05;;;;;;;36.16;100.00;100434.63;5052767;28;20060;-75
2023/08/22 09:14:11;;;;;;;9.88;6.97;;;;;;;37.65;100.00;100559.13;5051666;28;20050;-75
2023/08/22 09:16:36;;;;;;;13.15;8.18;;;;;;;37.44;100.00;100559.34;4326220;28;10001110;-74
2023/08/22 09:19:02;;;;;;;12.13;6.43;;;;;;;36.53;100.00;100504.94;5024634;28;20555;-73
2023/08/22 09:21:29;;;;;;;10.77;7.00;;;;;;;37.82;100.00;100534.63;5029716;28;20102;-74
2023/08/22 09:24:10;;;;;;;13.45;7.60;;;;;;;36.70;100.00;100516.84;5046143;28;20190;-77
2023/08/22 09:26:37;;;;;;;11.75;7.35;;;;;;;37.47;100.00;100572.19;5029780;28;20041;-74
2023/08/22 09:29:05;;;;;;;10.85;7.18;;;;;;;36.94;100.00;100573.88;5046345;28;20108;-78
2023/08/22 09:31:32;;;;;;;7.68;6.70;;;;;;;37.55;100.00;100556.06;5044840;28;20079;-78
2023/08/22 09:33:58;;;;;;;7.40;6.63;;;;;;;37.25;100.00;100560.91;5045082;28;20029;-75
2023/08/22 09:36:24;;;;;;;8.07;7.15;;;;;;;36.44;100.00;100553.84;5043759;28;21023;-76
2023/08/22 09:38:58;;;;;;;11.50;6.72;;;;;;;37.35;100.00;100481.72;5012502;28;20029;-76
2023/08/22 09:41:25;;;;;;;7.97;6.70;;;;;;;38.07;100.00;100524.19;5031791;28;20115;-77
2023/08/22 09:43:57;;;;;;;7.75;6.72;;;;;;;37.35;100.00;100548.91;5042981;28;20032;-76
2023/08/22 09:46:24;;;;;;;9.20;6.78;;;;;;;37.25;100.00;100507.81;5044969;28;20548;-80
2023/08/22 09:48:50;;;;;;;12.43;6.95;;;;;;;37.47;100.00;100527.06;5049671;28;20159;-80
2023/08/22 09:51:20;;;;;;;7.97;7.22;;;;;;;37.71;100.00;100515.81;5033767;28;20476;-76
2023/08/22 09:53:59;;;;;;;10.73;8.00;;;;;;;37.03;100.00;100450.63;5050936;28;20113;-81
2023/08/22 09:56:25;;;;;;;10.18;6.43;;;;;;;37.41;100.00;100485.38;5051609;28;20036;-81
2023/08/22 09:58:52;;;;;;;8.13;6.40;;;;;;;37.30;100.00;100484.94;5051341;28;20037;-80
2023/08/22 10:01:19;;;;;;;8.20;6.80;;;;;;;35.98;100.00;100565.94;5051484;28;20488;-80
2023/08/22 10:03:46;;;;;;;12.77;9.02;;;;;;;36.15;100.00;100570.75;5051199;28;20033;-76
2023/08/22 10:06:13;;;;;;;11.65;7.60;;;;;;;36.25;100.00;100504.97;5051549;28;20029;-73
2023/08/22 10:08:41;;;;;;;10.27;7.45;;;;;;;37.02;100.00;100523.28;5051953;28;20067;-81
2023/08/22 10:11:10;;;;;;;11.10;7.35;;;;;;;36.83;100.00;100531.97;5051155;28;20079;-78
2023/08/22 10:13:37;;;;;;;10.55;7.97;;;;;;;37.63;100.00;100516.03;5052299;28;20033;-81
2023/08/22 10:16:03;;;;;;;12.45;7.35;;;;;;;38.70;100.00;100491.50;5055219;28;20523;-82
2023/08/22 10:18:29;;;;;;;8.38;6.53;;;;;;;37.81;100.00;100516.25;5052239;28;20025;-79
2023/08/22 10:20:55;;;;;;;12.30;7.95;;;;;;;37.74;100.00;100449.81;5055617;28;20076;-79
2023/08/22 10:23:51;;;;;;;10.02;7.05;;;;;;;38.55;100.00;100495.44;5055378;28;20037;-80
2023/08/22 10:26:20;;;;;;;12.77;6.97;;;;;;;37.61;100.00;100457.81;5055101;28;20029;-81
2023/08/22 10:29:12;;;;;;;8.85;6.80;;;;;;;38.25;100.00;100504.94;5050529;28;20033;-78
2023/08/22 10:31:59;;;;;;;8.55;7.35;;;;;;;38.12;100.00;100506.59;5042262;28;20135;-78
2023/08/22 10:34:25;;;;;;;14.85;7.70;;;;;;;38.16;100.00;100504.31;5055356;28;20036;-81
2023/08/22 10:36:59;;;;;;;11.00;7.18;;;;;;;38.67;100.00;100449.34;5055121;28;20029;-80
2023/08/22 10:39:41;;;;;;;11.38;7.13;;;;;;;37.85;100.00;100474.97;5037425;28;20033;-80
2023/08/22 10:42:15;;;;;;;9.98;7.80;;;;;;;37.10;100.00;100476.13;5054901;28;20036;-80
2023/08/22 10:44:41;;;;;;;8.23;7.43;;;;;;;37.42;100.00;100439.25;5054609;28;20515;-80
2023/08/22 10:47:08;;;;;;;13.85;7.40;;;;;;;37.57;100.00;100461.91;5054713;28;20029;-80
2023/08/22 10:49:38;;;;;;;10.93;7.40;;;;;;;38.81;100.00;100495.31;5054778;28;20031;-77
2023/08/22 10:52:10;;;;;;;14.20;7.55;;;;;;;37.35;100.00;100542.78;5054291;28;20036;-79
2023/08/22 10:55:00;;;;;;;11.00;7.25;;;;;;;36.73;100.00;100568.66;5055298;28;20025;-79
2023/08/22 10:57:32;;;;;;;9.95;7.07;;;;;;;36.52;100.00;100565.09;5054580;28;20025;-77
2023/08/22 11:00:14;;;;;;;12.60;7.28;;;;;;;36.71;100.00;100542.34;5055039;28;20064;-79
2023/08/22 11:02:42;;;;;;;11.45;7.22;;;;;;;37.41;100.00;100510.09;5054660;28;20098;-81
2023/08/22 11:05:10;;;;;;;9.40;7.15;;;;;;;38.04;100.00;100504.16;5037272;28;20451;-80
2023/08/22 11:07:36;;;;;;;12.40;7.40;;;;;;;37.38;100.00;100468.84;5055001;28;20107;-82
2023/08/22 11:10:04;;;;;;;13.23;6.93;;;;;;;37.09;100.00;100527.59;5053883;28;20025;-81
2023/08/22 11:12:29;;;;;;;8.10;6.78;;;;;;;37.27;100.00;100527.00;5054460;28;20029;-82